sensor_id;sensor_type;location;lat;lon;timestamp;pressure;altitude;pressure_sealevel;temperature;humidity
75815;BME280;64451;45.574;14.224;2022-12-07T00:00:36;96615.84;;;1.81;99.23
75815;BME280;64451;45.574;14.224;2022-12-07T00:02:36;96609.34;;;1.89;99.19
75815;BME280;64451;45.574;14.224;2022-12-07T00:04:37;96606.59;;;2.12;98.45
75815;BME280;64451;45.574;14.224;2022-12-07T00:06:40;96605.13;;;2.21;97.32
75815;BME280;64451;45.574;14.224;2022-12-07T00:08:41;96602.72;;;2.20;96.51
75815;BME280;64451;45.574;14.224;2022-12-07T00:10:41;96601.34;;;2.01;97.42
75815;BME280;64451;45.574;14.224;2022-12-07T00:12:42;96597.31;;;1.98;97.69
75815;BME280;64451;45.574;14.224;2022-12-07T00:14:42;96599.25;;;2.03;97.22
75815;BME280;64451;45.574;14.224;2022-12-07T00:16:43;96596.59;;;2.03;97.31
75815;BME280;64451;45.574;14.224;2022-12-07T00:18:45;96593.06;;;2.14;96.95
75815;BME280;64451;45.574;14.224;2022-12-07T00:20:45;96589.75;;;2.07;97.18
75815;BME280;64451;45.574;14.224;2022-12-07T00:22:45;96586.31;;;2.06;97.93
75815;BME280;64451;45.574;14.224;2022-12-07T00:24:46;96590.81;;;2.06;98.10
75815;BME280;64451;45.574;14.224;2022-12-07T00:26:46;96586.72;;;2.15;98.32
75815;BME280;64451;45.574;14.224;2022-12-07T00:28:48;96582.22;;;2.32;97.00
75815;BME280;64451;45.574;14.224;2022-12-07T00:30:49;96591.06;;;2.38;96.25
75815;BME280;64451;45.574;14.224;2022-12-07T00:32:50;96586.91;;;2.42;95.74
75815;BME280;64451;45.574;14.224;2022-12-07T00:34:50;96592.34;;;2.35;95.75
75815;BME280;64451;45.574;14.224;2022-12-07T00:36:50;96589.16;;;2.33;96.31
75815;BME280;64451;45.574;14.224;2022-12-07T00:38:51;96592.13;;;2.37;96.26
75815;BME280;64451;45.574;14.224;2022-12-07T00:40:59;96586.56;;;2.38;96.43
75815;BME280;64451;45.574;14.224;2022-12-07T00:43:00;96585.84;;;2.26;96.61
75815;BME280;64451;45.574;14.224;2022-12-07T00:45:01;96587.69;;;2.25;97.10
75815;BME280;64451;45.574;14.224;2022-12-07T00:47:01;96580.28;;;2.44;95.86
75815;BME280;64451;45.574;14.224;2022-12-07T00:49:02;96581.09;;;2.45;95.51
75815;BME280;64451;45.574;14.224;2022-12-07T00:51:03;96572.72;;;2.53;95.84
75815;BME280;64451;45.574;14.224;2022-12-07T00:53:03;96577.31;;;2.58;95.23
75815;BME280;64451;45.574;14.224;2022-12-07T00:55:04;96582.53;;;2.52;94.89
75815;BME280;64451;45.574;14.224;2022-12-07T00:57:05;96582.22;;;2.49;94.84
75815;BME280;64451;45.574;14.224;2022-12-07T00:59:05;96579.47;;;2.10;96.54
75815;BME280;64451;45.574;14.224;2022-12-07T01:01:07;96584.22;;;1.91;97.43
75815;BME280;64451;45.574;14.224;2022-12-07T01:03:10;96581.38;;;1.98;97.50
75815;BME280;64451;45.574;14.224;2022-12-07T01:05:10;96585.09;;;2.14;97.07
75815;BME280;64451;45.574;14.224;2022-12-07T01:07:11;96585.03;;;2.25;96.99
75815;BME280;64451;45.574;14.224;2022-12-07T01:09:11;96586.09;;;2.24;96.74
75815;BME280;64451;45.574;14.224;2022-12-07T01:11:14;96591.06;;;2.21;96.90
75815;BME280;64451;45.574;14.224;2022-12-07T01:13:15;96586.66;;;1.81;98.22
75815;BME280;64451;45.574;14.224;2022-12-07T01:15:16;96591.81;;;1.88;99.42
75815;BME280;64451;45.574;14.224;2022-12-07T01:17:16;96585.53;;;1.77;99.51
75815;BME280;64451;45.574;14.224;2022-12-07T01:19:16;96584.28;;;1.96;99.31
75815;BME280;64451;45.574;14.224;2022-12-07T01:21:19;96583.25;;;2.31;98.38
75815;BME280;64451;45.574;14.224;2022-12-07T01:23:20;96586.50;;;2.33;97.08
75815;BME280;64451;45.574;14.224;2022-12-07T01:25:21;96584.69;;;2.05;98.14
75815;BME280;64451;45.574;14.224;2022-12-07T01:27:21;96584.94;;;2.04;98.93
75815;BME280;64451;45.574;14.224;2022-12-07T01:29:21;96583.19;;;2.09;98.94
75815;BME280;64451;45.574;14.224;2022-12-07T01:31:24;96590.81;;;2.06;99.15
75815;BME280;64451;45.574;14.224;2022-12-07T01:33:27;96585.09;;;1.97;99.45
75815;BME280;64451;45.574;14.224;2022-12-07T01:35:27;96584.63;;;2.17;99.76
75815;BME280;64451;45.574;14.224;2022-12-07T01:37:28;96584.16;;;2.37;99.03
75815;BME280;64451;45.574;14.224;2022-12-07T01:39:33;96579.38;;;2.39;97.99
75815;BME280;64451;45.574;14.224;2022-12-07T01:41:36;96576.97;;;2.37;97.94
75815;BME280;64451;45.574;14.224;2022-12-07T01:46:16;96588.16;;;2.39;98.15
75815;BME280;64451;45.574;14.224;2022-12-07T01:48:19;96576.81;;;2.44;98.07
75815;BME280;64451;45.574;14.224;2022-12-07T01:50:26;96576.59;;;2.29;98.07
75815;BME280;64451;45.574;14.224;2022-12-07T01:52:31;96577.22;;;2.36;98.49
75815;BME280;64451;45.574;14.224;2022-12-07T01:54:34;96574.19;;;2.27;98.32
75815;BME280;64451;45.574;14.224;2022-12-07T01:56:36;96573.63;;;2.25;98.79
75815;BME280;64451;45.574;14.224;2022-12-07T01:58:37;96574.56;;;2.52;98.84
75815;BME280;64451;45.574;14.224;2022-12-07T02:00:38;96563.16;;;2.35;98.36
75815;BME280;64451;45.574;14.224;2022-12-07T02:02:54;96563.88;;;2.14;99.64
75815;BME280;64451;45.574;14.224;2022-12-07T02:04:55;96564.03;;;2.41;99.74
75815;BME280;64451;45.574;14.224;2022-12-07T02:06:57;96552.28;;;2.20;99.26
75815;BME280;64451;45.574;14.224;2022-12-07T02:08:57;96553.66;;;2.22;99.11
75815;BME280;64451;45.574;14.224;2022-12-07T02:10:58;96553.41;;;2.41;99.22
75815;BME280;64451;45.574;14.224;2022-12-07T02:13:12;96551.56;;;2.41;99.06
75815;BME280;64451;45.574;14.224;2022-12-07T02:15:13;96549.19;;;2.62;98.48
75815;BME280;64451;45.574;14.224;2022-12-07T02:17:36;96544.81;;;2.34;98.47
75815;BME280;64451;45.574;14.224;2022-12-07T02:29:01;96549.13;;;2.57;98.98
75815;BME280;64451;45.574;14.224;2022-12-07T02:31:11;96537.25;;;2.42;98.24
75815;BME280;64451;45.574;14.224;2022-12-07T02:33:19;96545.38;;;2.36;98.59
75815;BME280;64451;45.574;14.224;2022-12-07T02:37:47;96527.28;;;2.71;97.95
75815;BME280;64451;45.574;14.224;2022-12-07T02:40:01;96519.88;;;2.95;95.99
75815;BME280;64451;45.574;14.224;2022-12-07T02:42:13;96525.50;;;2.77;96.05
75815;BME280;64451;45.574;14.224;2022-12-07T02:44:19;96526.38;;;2.44;96.39
75815;BME280;64451;45.574;14.224;2022-12-07T02:46:23;96523.59;;;2.56;97.02
75815;BME280;64451;45.574;14.224;2022-12-07T02:48:26;96517.78;;;2.75;95.50
75815;BME280;64451;45.574;14.224;2022-12-07T02:50:27;96516.97;;;2.75;95.23
75815;BME280;64451;45.574;14.224;2022-12-07T02:52:28;96504.78;;;2.79;95.00
75815;BME280;64451;45.574;14.224;2022-12-07T02:54:28;96512.16;;;2.16;96.64
75815;BME280;64451;45.574;14.224;2022-12-07T03:01:04;96512.22;;;2.77;94.37
75815;BME280;64451;45.574;14.224;2022-12-07T03:03:14;96508.94;;;2.70;94.65
75815;BME280;64451;45.574;14.224;2022-12-07T03:07:46;96523.66;;;2.22;96.64
75815;BME280;64451;45.574;14.224;2022-12-07T03:10:03;96519.63;;;2.36;96.76
75815;BME280;64451;45.574;14.224;2022-12-07T03:12:18;96520.13;;;2.33;96.58
75815;BME280;64451;45.574;14.224;2022-12-07T03:14:26;96514.81;;;2.33;96.34
75815;BME280;64451;45.574;14.224;2022-12-07T03:16:33;96516.25;;;2.24;96.38
75815;BME280;64451;45.574;14.224;2022-12-07T03:18:39;96509.41;;;2.11;97.19
75815;BME280;64451;45.574;14.224;2022-12-07T03:20:42;96514.19;;;2.09;97.31
75815;BME280;64451;45.574;14.224;2022-12-07T03:22:45;96510.97;;;2.24;97.03
75815;BME280;64451;45.574;14.224;2022-12-07T03:24:47;96510.22;;;2.29;95.97
75815;BME280;64451;45.574;14.224;2022-12-07T03:26:56;96501.94;;;2.25;95.96
75815;BME280;64451;45.574;14.224;2022-12-07T03:29:07;96503.94;;;2.18;95.56
75815;BME280;64451;45.574;14.224;2022-12-07T03:31:18;96498.72;;;2.06;96.19
75815;BME280;64451;45.574;14.224;2022-12-07T03:33:25;96492.84;;;2.04;96.57
75815;BME280;64451;45.574;14.224;2022-12-07T03:37:52;96502.28;;;1.95;96.69
75815;BME280;64451;45.574;14.224;2022-12-07T03:40:07;96505.84;;;1.55;97.40
75815;BME280;64451;45.574;14.224;2022-12-07T03:42:12;96505.25;;;1.36;99.09
75815;BME280;64451;45.574;14.224;2022-12-07T03:44:14;96499.16;;;1.36;99.34
75815;BME280;64451;45.574;14.224;2022-12-07T03:46:27;96503.19;;;1.10;100.00
75815;BME280;64451;45.574;14.224;2022-12-07T03:50:52;96498.59;;;1.34;100.00
75815;BME280;64451;45.574;14.224;2022-12-07T03:53:01;96499.28;;;1.29;99.92
75815;BME280;64451;45.574;14.224;2022-12-07T03:57:41;96493.81;;;1.19;100.00
75815;BME280;64451;45.574;14.224;2022-12-07T03:59:43;96500.28;;;1.11;100.00
75815;BME280;64451;45.574;14.224;2022-12-07T04:01:44;96496.50;;;1.36;100.00
75815;BME280;64451;45.574;14.224;2022-12-07T04:03:45;96489.91;;;1.38;100.00
75815;BME280;64451;45.574;14.224;2022-12-07T04:05:46;96494.03;;;1.46;100.00
75815;BME280;64451;45.574;14.224;2022-12-07T04:07:46;96495.91;;;1.62;100.00
75815;BME280;64451;45.574;14.224;2022-12-07T04:09:46;96493.88;;;1.53;100.00
75815;BME280;64451;45.574;14.224;2022-12-07T04:11:47;96495.47;;;1.54;99.51
75815;BME280;64451;45.574;14.224;2022-12-07T04:13:47;96495.66;;;1.64;99.48
75815;BME280;64451;45.574;14.224;2022-12-07T04:16:06;96493.34;;;1.67;99.31
75815;BME280;64451;45.574;14.224;2022-12-07T04:18:07;96493.41;;;1.73;99.51
75815;BME280;64451;45.574;14.224;2022-12-07T04:20:08;96499.88;;;1.48;99.49
75815;BME280;64451;45.574;14.224;2022-12-07T04:22:08;96492.09;;;1.42;99.15
75815;BME280;64451;45.574;14.224;2022-12-07T04:24:09;96489.78;;;1.17;100.00
75815;BME280;64451;45.574;14.224;2022-12-07T04:26:09;96484.38;;;1.11;100.00
75815;BME280;64451;45.574;14.224;2022-12-07T04:28:09;96486.91;;;1.18;100.00
75815;BME280;64451;45.574;14.224;2022-12-07T04:30:10;96482.84;;;1.16;100.00
75815;BME280;64451;45.574;14.224;2022-12-07T04:32:10;96483.81;;;1.09;100.00
75815;BME280;64451;45.574;14.224;2022-12-07T04:34:11;96475.50;;;1.18;99.99
75815;BME280;64451;45.574;14.224;2022-12-07T04:36:11;96471.19;;;1.28;99.79
75815;BME280;64451;45.574;14.224;2022-12-07T04:38:12;96468.38;;;1.06;99.55
75815;BME280;64451;45.574;14.224;2022-12-07T04:40:12;96469.47;;;0.94;100.00
75815;BME280;64451;45.574;14.224;2022-12-07T04:42:14;96465.69;;;0.90;100.00
75815;BME280;64451;45.574;14.224;2022-12-07T04:44:15;96473.69;;;1.06;100.00
75815;BME280;64451;45.574;14.224;2022-12-07T04:46:16;96469.81;;;0.97;99.72
75815;BME280;64451;45.574;14.224;2022-12-07T04:48:16;96473.69;;;1.06;99.50
75815;BME280;64451;45.574;14.224;2022-12-07T04:50:16;96477.69;;;0.80;99.92
75815;BME280;64451;45.574;14.224;2022-12-07T04:52:17;96476.13;;;0.68;100.00
75815;BME280;64451;45.574;14.224;2022-12-07T04:54:18;96480.91;;;0.82;100.00
75815;BME280;64451;45.574;14.224;2022-12-07T04:56:19;96484.44;;;1.00;100.00
75815;BME280;64451;45.574;14.224;2022-12-07T04:58:19;96487.09;;;1.28;100.00
75815;BME280;64451;45.574;14.224;2022-12-07T05:00:19;96478.88;;;1.30;98.88
75815;BME280;64451;45.574;14.224;2022-12-07T05:02:20;96490.47;;;1.40;97.67
75815;BME280;64451;45.574;14.224;2022-12-07T05:04:20;96488.84;;;1.39;97.33
75815;BME280;64451;45.574;14.224;2022-12-07T05:06:20;96477.69;;;1.37;96.70
75815;BME280;64451;45.574;14.224;2022-12-07T05:08:21;96472.22;;;1.27;97.18
75815;BME280;64451;45.574;14.224;2022-12-07T05:10:21;96484.19;;;1.30;97.50
75815;BME280;64451;45.574;14.224;2022-12-07T05:12:21;96483.31;;;1.24;97.87
75815;BME280;64451;45.574;14.224;2022-12-07T05:14:26;96478.56;;;1.26;97.77
75815;BME280;64451;45.574;14.224;2022-12-07T05:16:26;96483.50;;;1.34;98.01
75815;BME280;64451;45.574;14.224;2022-12-07T05:18:27;96482.16;;;1.20;97.99
75815;BME280;64451;45.574;14.224;2022-12-07T05:20:27;96483.69;;;1.16;98.90
75815;BME280;64451;45.574;14.224;2022-12-07T05:22:28;96479.72;;;1.47;98.48
75815;BME280;64451;45.574;14.224;2022-12-07T05:24:28;96491.94;;;1.48;97.60
75815;BME280;64451;45.574;14.224;2022-12-07T05:26:29;96489.06;;;1.50;97.64
75815;BME280;64451;45.574;14.224;2022-12-07T05:28:29;96482.31;;;1.42;97.40
75815;BME280;64451;45.574;14.224;2022-12-07T05:30:29;96483.63;;;1.28;98.44
75815;BME280;64451;45.574;14.224;2022-12-07T05:32:30;96481.50;;;1.42;98.09
75815;BME280;64451;45.574;14.224;2022-12-07T05:34:30;96482.78;;;1.56;97.25
75815;BME280;64451;45.574;14.224;2022-12-07T05:36:30;96476.03;;;1.48;96.61
75815;BME280;64451;45.574;14.224;2022-12-07T05:38:32;96478.97;;;0.66;98.21
75815;BME280;64451;45.574;14.224;2022-12-07T05:40:32;96484.03;;;0.79;99.47
75815;BME280;64451;45.574;14.224;2022-12-07T05:42:33;96483.25;;;0.67;99.64
75815;BME280;64451;45.574;14.224;2022-12-07T05:44:33;96477.53;;;0.47;100.00
75815;BME280;64451;45.574;14.224;2022-12-07T05:46:34;96478.78;;;0.56;100.00
75815;BME280;64451;45.574;14.224;2022-12-07T05:48:34;96481.88;;;0.65;100.00
75815;BME280;64451;45.574;14.224;2022-12-07T05:50:34;96482.56;;;0.72;100.00
75815;BME280;64451;45.574;14.224;2022-12-07T05:52:35;96481.69;;;0.95;100.00
75815;BME280;64451;45.574;14.224;2022-12-07T05:54:35;96481.03;;;1.16;99.04
75815;BME280;64451;45.574;14.224;2022-12-07T05:56:35;96486.19;;;1.23;98.17
75815;BME280;64451;45.574;14.224;2022-12-07T05:58:36;96487.16;;;1.17;97.65
75815;BME280;64451;45.574;14.224;2022-12-07T06:00:55;96493.19;;;1.00;98.53
75815;BME280;64451;45.574;14.224;2022-12-07T06:02:56;96486.19;;;0.82;98.90
75815;BME280;64451;45.574;14.224;2022-12-07T06:04:56;96485.13;;;0.67;100.00
75815;BME280;64451;45.574;14.224;2022-12-07T06:06:57;96477.69;;;0.80;100.00
75815;BME280;64451;45.574;14.224;2022-12-07T06:08:58;96478.72;;;0.91;100.00
75815;BME280;64451;45.574;14.224;2022-12-07T06:10:58;96480.44;;;0.86;100.00
75815;BME280;64451;45.574;14.224;2022-12-07T06:13:17;96488.34;;;0.97;99.88
75815;BME280;64451;45.574;14.224;2022-12-07T06:15:17;96479.81;;;1.24;99.26
75815;BME280;64451;45.574;14.224;2022-12-07T06:17:18;96478.94;;;1.18;99.08
75815;BME280;64451;45.574;14.224;2022-12-07T06:19:19;96477.09;;;1.19;98.73
75815;BME280;64451;45.574;14.224;2022-12-07T06:21:19;96477.81;;;1.14;99.00
75815;BME280;64451;45.574;14.224;2022-12-07T06:23:19;96490.00;;;1.44;98.74
75815;BME280;64451;45.574;14.224;2022-12-07T06:25:20;96485.78;;;1.59;97.43
75815;BME280;64451;45.574;14.224;2022-12-07T06:27:20;96487.41;;;1.77;96.20
75815;BME280;64451;45.574;14.224;2022-12-07T06:29:20;96491.00;;;1.71;96.24
75815;BME280;64451;45.574;14.224;2022-12-07T06:31:22;96497.91;;;1.72;96.22
75815;BME280;64451;45.574;14.224;2022-12-07T06:33:22;96496.66;;;1.75;96.03
75815;BME280;64451;45.574;14.224;2022-12-07T06:35:22;96490.03;;;1.60;96.43
75815;BME280;64451;45.574;14.224;2022-12-07T06:37:23;96487.28;;;1.72;95.99
75815;BME280;64451;45.574;14.224;2022-12-07T06:39:25;96485.03;;;1.47;96.19
75815;BME280;64451;45.574;14.224;2022-12-07T06:41:26;96498.03;;;1.49;97.48
75815;BME280;64451;45.574;14.224;2022-12-07T06:43:27;96492.44;;;1.62;97.11
75815;BME280;64451;45.574;14.224;2022-12-07T06:45:27;96488.59;;;1.69;96.53
75815;BME280;64451;45.574;14.224;2022-12-07T06:47:27;96495.22;;;1.10;97.64
75815;BME280;64451;45.574;14.224;2022-12-07T06:49:28;96478.78;;;1.08;98.67
75815;BME280;64451;45.574;14.224;2022-12-07T06:51:28;96489.13;;;1.09;98.22
75815;BME280;64451;45.574;14.224;2022-12-07T06:53:28;96488.75;;;1.18;99.10
75815;BME280;64451;45.574;14.224;2022-12-07T06:55:29;96497.97;;;1.44;97.98
75815;BME280;64451;45.574;14.224;2022-12-07T06:57:29;96496.84;;;1.56;97.00
75815;BME280;64451;45.574;14.224;2022-12-07T06:59:29;96496.44;;;1.64;96.44
75815;BME280;64451;45.574;14.224;2022-12-07T07:01:29;96495.78;;;1.40;97.76
75815;BME280;64451;45.574;14.224;2022-12-07T07:03:30;96496.69;;;1.63;97.61
75815;BME280;64451;45.574;14.224;2022-12-07T07:05:30;96498.97;;;1.88;97.12
75815;BME280;64451;45.574;14.224;2022-12-07T07:07:30;96499.22;;;2.03;95.31
75815;BME280;64451;45.574;14.224;2022-12-07T07:09:31;96500.00;;;2.04;95.77
75815;BME280;64451;45.574;14.224;2022-12-07T07:11:31;96500.00;;;1.87;96.58
75815;BME280;64451;45.574;14.224;2022-12-07T07:13:32;96499.31;;;1.46;98.85
75815;BME280;64451;45.574;14.224;2022-12-07T07:15:32;96502.34;;;1.38;99.37
75815;BME280;64451;45.574;14.224;2022-12-07T07:17:33;96508.84;;;1.30;99.82
75815;BME280;64451;45.574;14.224;2022-12-07T07:19:33;96514.53;;;1.22;100.00
75815;BME280;64451;45.574;14.224;2022-12-07T07:21:34;96517.66;;;1.19;100.00
75815;BME280;64451;45.574;14.224;2022-12-07T07:23:34;96520.31;;;1.19;100.00
75815;BME280;64451;45.574;14.224;2022-12-07T07:25:34;96517.22;;;1.10;100.00
75815;BME280;64451;45.574;14.224;2022-12-07T07:27:35;96521.44;;;1.23;100.00
75815;BME280;64451;45.574;14.224;2022-12-07T07:29:35;96519.25;;;1.20;100.00
75815;BME280;64451;45.574;14.224;2022-12-07T07:31:35;96517.91;;;1.18;100.00
75815;BME280;64451;45.574;14.224;2022-12-07T07:33:37;96524.44;;;1.27;100.00
75815;BME280;64451;45.574;14.224;2022-12-07T07:35:43;96525.53;;;1.43;100.00
75815;BME280;64451;45.574;14.224;2022-12-07T07:37:46;96527.50;;;1.35;100.00
75815;BME280;64451;45.574;14.224;2022-12-07T07:39:46;96521.16;;;1.36;100.00
75815;BME280;64451;45.574;14.224;2022-12-07T07:41:47;96524.06;;;1.35;100.00
75815;BME280;64451;45.574;14.224;2022-12-07T07:43:47;96531.28;;;1.39;100.00
75815;BME280;64451;45.574;14.224;2022-12-07T07:45:47;96530.09;;;1.47;100.00
75815;BME280;64451;45.574;14.224;2022-12-07T07:47:48;96530.34;;;1.46;100.00
75815;BME280;64451;45.574;14.224;2022-12-07T07:49:49;96524.78;;;1.47;100.00
75815;BME280;64451;45.574;14.224;2022-12-07T07:51:49;96522.50;;;1.51;100.00
75815;BME280;64451;45.574;14.224;2022-12-07T07:53:49;96521.84;;;1.60;100.00
75815;BME280;64451;45.574;14.224;2022-12-07T07:55:51;96522.19;;;1.81;100.00
75815;BME280;64451;45.574;14.224;2022-12-07T07:57:53;96524.44;;;1.89;100.00
75815;BME280;64451;45.574;14.224;2022-12-07T07:59:54;96525.75;;;1.86;100.00
75815;BME280;64451;45.574;14.224;2022-12-07T08:01:54;96523.75;;;2.10;100.00
75815;BME280;64451;45.574;14.224;2022-12-07T08:03:55;96520.44;;;2.20;100.00
75815;BME280;64451;45.574;14.224;2022-12-07T08:05:55;96519.41;;;2.60;99.98
75815;BME280;64451;45.574;14.224;2022-12-07T08:07:57;96522.75;;;2.72;98.42
75815;BME280;64451;45.574;14.224;2022-12-07T08:09:57;96521.47;;;2.96;97.91
75815;BME280;64451;45.574;14.224;2022-12-07T08:11:57;96526.38;;;3.04;96.91
75815;BME280;64451;45.574;14.224;2022-12-07T08:13:58;96520.78;;;3.28;96.60
75815;BME280;64451;45.574;14.224;2022-12-07T08:16:03;96523.69;;;3.04;96.37
75815;BME280;64451;45.574;14.224;2022-12-07T08:18:04;96517.31;;;3.49;94.08
75815;BME280;64451;45.574;14.224;2022-12-07T08:20:06;96508.66;;;3.64;91.59
75815;BME280;64451;45.574;14.224;2022-12-07T08:22:06;96523.13;;;3.73;91.02
75815;BME280;64451;45.574;14.224;2022-12-07T08:24:07;96523.41;;;3.77;91.20
75815;BME280;64451;45.574;14.224;2022-12-07T08:26:10;96522.81;;;3.70;91.63
75815;BME280;64451;45.574;14.224;2022-12-07T08:28:10;96516.16;;;3.72;91.61
75815;BME280;64451;45.574;14.224;2022-12-07T08:30:11;96524.53;;;3.54;92.39
75815;BME280;64451;45.574;14.224;2022-12-07T08:32:11;96533.28;;;3.49;93.30
75815;BME280;64451;45.574;14.224;2022-12-07T08:34:12;96523.34;;;3.72;92.35
75815;BME280;64451;45.574;14.224;2022-12-07T08:36:13;96526.03;;;3.72;92.37
75815;BME280;64451;45.574;14.224;2022-12-07T08:38:14;96525.50;;;4.02;91.44
75815;BME280;64451;45.574;14.224;2022-12-07T08:40:14;96519.50;;;4.21;90.32
75815;BME280;64451;45.574;14.224;2022-12-07T08:42:16;96529.75;;;3.98;91.76
75815;BME280;64451;45.574;14.224;2022-12-07T08:44:16;96521.03;;;3.80;93.05
75815;BME280;64451;45.574;14.224;2022-12-07T08:48:23;96531.53;;;4.24;91.51
75815;BME280;64451;45.574;14.224;2022-12-07T08:50:24;96529.22;;;4.33;90.75
75815;BME280;64451;45.574;14.224;2022-12-07T08:52:25;96534.22;;;4.66;89.71
75815;BME280;64451;45.574;14.224;2022-12-07T08:54:25;96532.22;;;4.46;89.84
75815;BME280;64451;45.574;14.224;2022-12-07T08:56:26;96536.59;;;4.26;91.95
75815;BME280;64451;45.574;14.224;2022-12-07T08:58:26;96531.44;;;4.88;89.26
75815;BME280;64451;45.574;14.224;2022-12-07T09:00:27;96536.56;;;5.10;86.85
75815;BME280;64451;45.574;14.224;2022-12-07T09:02:27;96534.44;;;5.07;85.67
75815;BME280;64451;45.574;14.224;2022-12-07T09:04:28;96534.41;;;4.97;87.60
75815;BME280;64451;45.574;14.224;2022-12-07T09:06:28;96535.69;;;4.94;88.08
75815;BME280;64451;45.574;14.224;2022-12-07T09:08:32;96534.22;;;5.19;86.52
75815;BME280;64451;45.574;14.224;2022-12-07T09:10:33;96535.50;;;5.06;87.56
75815;BME280;64451;45.574;14.224;2022-12-07T09:12:33;96535.75;;;5.04;87.45
75815;BME280;64451;45.574;14.224;2022-12-07T09:14:34;96521.91;;;5.13;88.88
75815;BME280;64451;45.574;14.224;2022-12-07T09:16:34;96522.50;;;5.25;89.75
75815;BME280;64451;45.574;14.224;2022-12-07T09:18:34;96531.03;;;5.27;86.92
75815;BME280;64451;45.574;14.224;2022-12-07T09:20:35;96524.34;;;5.19;87.25
75815;BME280;64451;45.574;14.224;2022-12-07T09:22:35;96523.53;;;5.19;87.68
75815;BME280;64451;45.574;14.224;2022-12-07T09:24:36;96524.31;;;5.09;88.96
75815;BME280;64451;45.574;14.224;2022-12-07T09:26:36;96524.84;;;5.06;87.46
75815;BME280;64451;45.574;14.224;2022-12-07T09:28:38;96518.44;;;5.12;87.84
75815;BME280;64451;45.574;14.224;2022-12-07T09:30:38;96515.84;;;5.32;89.24
75815;BME280;64451;45.574;14.224;2022-12-07T09:32:38;96518.88;;;5.56;87.84
75815;BME280;64451;45.574;14.224;2022-12-07T09:34:39;96514.84;;;5.59;87.22
75815;BME280;64451;45.574;14.224;2022-12-07T09:36:39;96515.38;;;5.61;86.10
75815;BME280;64451;45.574;14.224;2022-12-07T09:38:39;96518.63;;;5.63;86.99
75815;BME280;64451;45.574;14.224;2022-12-07T09:40:40;96520.22;;;5.69;87.05
75815;BME280;64451;45.574;14.224;2022-12-07T09:42:54;96505.84;;;5.90;85.39
75815;BME280;64451;45.574;14.224;2022-12-07T09:44:55;96504.78;;;6.07;85.12
75815;BME280;64451;45.574;14.224;2022-12-07T09:46:56;96505.84;;;6.26;84.37
75815;BME280;64451;45.574;14.224;2022-12-07T09:48:57;96505.06;;;6.26;84.46
75815;BME280;64451;45.574;14.224;2022-12-07T09:50:59;96504.00;;;6.22;84.83
75815;BME280;64451;45.574;14.224;2022-12-07T09:53:10;96510.13;;;6.42;83.88
75815;BME280;64451;45.574;14.224;2022-12-07T09:55:16;96507.94;;;6.60;84.41
75815;BME280;64451;45.574;14.224;2022-12-07T09:57:29;96510.34;;;6.66;83.90
75815;BME280;64451;45.574;14.224;2022-12-07T09:59:30;96493.38;;;7.01;81.94
75815;BME280;64451;45.574;14.224;2022-12-07T10:01:32;96493.94;;;7.03;80.62
75815;BME280;64451;45.574;14.224;2022-12-07T10:03:37;96493.09;;;7.13;82.41
75815;BME280;64451;45.574;14.224;2022-12-07T10:05:43;96477.72;;;7.34;79.70
75815;BME280;64451;45.574;14.224;2022-12-07T10:07:45;96478.88;;;7.67;79.07
75815;BME280;64451;45.574;14.224;2022-12-07T10:09:45;96473.44;;;7.38;79.99
75815;BME280;64451;45.574;14.224;2022-12-07T10:14:11;96472.63;;;7.38;80.96
75815;BME280;64451;45.574;14.224;2022-12-07T10:20:31;96468.00;;;7.48;81.72
75815;BME280;64451;45.574;14.224;2022-12-07T10:22:31;96468.94;;;7.68;79.53
75815;BME280;64451;45.574;14.224;2022-12-07T10:24:31;96464.16;;;7.65;80.89
75815;BME280;64451;45.574;14.224;2022-12-07T10:26:33;96464.47;;;7.97;80.30
75815;BME280;64451;45.574;14.224;2022-12-07T10:28:35;96462.94;;;8.20;80.17
75815;BME280;64451;45.574;14.224;2022-12-07T10:30:55;96455.00;;;8.39;76.43
75815;BME280;64451;45.574;14.224;2022-12-07T10:32:56;96454.81;;;8.83;77.24
75815;BME280;64451;45.574;14.224;2022-12-07T10:35:35;96451.41;;;8.49;76.80
75815;BME280;64451;45.574;14.224;2022-12-07T10:37:42;96447.16;;;8.95;75.41
75815;BME280;64451;45.574;14.224;2022-12-07T10:39:45;96449.13;;;8.85;75.67
75815;BME280;64451;45.574;14.224;2022-12-07T10:41:56;96451.94;;;8.98;71.86
75815;BME280;64451;45.574;14.224;2022-12-07T10:43:57;96438.81;;;8.97;69.45
75815;BME280;64451;45.574;14.224;2022-12-07T10:51:03;96431.09;;;9.52;71.51
75815;BME280;64451;45.574;14.224;2022-12-07T10:53:13;96426.31;;;9.30;69.51
75815;BME280;64451;45.574;14.224;2022-12-07T10:55:23;96430.22;;;9.38;69.56
75815;BME280;64451;45.574;14.224;2022-12-07T11:04:46;96412.88;;;9.49;68.63
75815;BME280;64451;45.574;14.224;2022-12-07T11:07:16;96412.66;;;9.45;69.49
75815;BME280;64451;45.574;14.224;2022-12-07T11:11:48;96405.09;;;9.47;69.07
75815;BME280;64451;45.574;14.224;2022-12-07T11:13:59;96418.31;;;9.63;67.16
75815;BME280;64451;45.574;14.224;2022-12-07T11:16:34;96412.38;;;9.47;67.66
75815;BME280;64451;45.574;14.224;2022-12-07T11:18:51;96413.22;;;9.42;70.11
75815;BME280;64451;45.574;14.224;2022-12-07T11:21:12;96411.56;;;9.46;69.01
75815;BME280;64451;45.574;14.224;2022-12-07T11:23:25;96420.88;;;9.54;68.71
75815;BME280;64451;45.574;14.224;2022-12-07T11:25:32;96409.09;;;9.50;67.45
75815;BME280;64451;45.574;14.224;2022-12-07T11:27:48;96414.53;;;9.26;68.96
75815;BME280;64451;45.574;14.224;2022-12-07T11:32:18;96403.00;;;9.25;69.93
75815;BME280;64451;45.574;14.224;2022-12-07T11:34:34;96400.59;;;9.43;68.56
75815;BME280;64451;45.574;14.224;2022-12-07T11:36:41;96397.63;;;9.25;68.34
75815;BME280;64451;45.574;14.224;2022-12-07T11:38:54;96391.59;;;9.34;68.71
75815;BME280;64451;45.574;14.224;2022-12-07T11:41:17;96392.50;;;9.29;67.00
75815;BME280;64451;45.574;14.224;2022-12-07T11:43:26;96385.38;;;9.19;67.26